sensor_id;sensor_type;location;lat;lon;timestamp;P1;durP1;ratioP1;P2;durP2;ratioP2
72882;SDS011;61017;37.812;-122.286;2023-09-19T00:00:01;4.05;;;2.60;;
72882;SDS011;61017;37.812;-122.286;2023-09-19T00:01:33;4.03;;;2.50;;
72882;SDS011;61017;37.812;-122.286;2023-09-19T00:03:04;5.20;;;2.73;;
72882;SDS011;61017;37.812;-122.286;2023-09-19T00:04:37;4.35;;;2.47;;
72882;SDS011;61017;37.812;-122.286;2023-09-19T00:06:08;4.43;;;2.58;;
72882;SDS011;61017;37.812;-122.286;2023-09-19T00:07:40;4.18;;;2.63;;
72882;SDS011;61017;37.812;-122.286;2023-09-19T00:09:11;4.40;;;2.50;;
72882;SDS011;61017;37.812;-122.286;2023-09-19T00:10:43;3.28;;;2.35;;
72882;SDS011;61017;37.812;-122.286;2023-09-19T00:12:14;6.03;;;2.85;;
72882;SDS011;61017;37.812;-122.286;2023-09-19T00:13:49;5.60;;;2.28;;
72882;SDS011;61017;37.812;-122.286;2023-09-19T00:15:23;5.03;;;2.60;;
72882;SDS011;61017;37.812;-122.286;2023-09-19T00:16:55;5.45;;;2.78;;
72882;SDS011;61017;37.812;-122.286;2023-09-19T00:18:27;3.95;;;2.30;;
72882;SDS011;61017;37.812;-122.286;2023-09-19T00:19:58;5.85;;;2.63;;
72882;SDS011;61017;37.812;-122.286;2023-09-19T00:21:31;5.28;;;2.55;;
72882;SDS011;61017;37.812;-122.286;2023-09-19T00:23:03;3.50;;;2.53;;
72882;SDS011;61017;37.812;-122.286;2023-09-19T00:24:35;4.32;;;2.50;;
72882;SDS011;61017;37.812;-122.286;2023-09-19T00:26:06;4.57;;;2.42;;
72882;SDS011;61017;37.812;-122.286;2023-09-19T00:27:38;5.25;;;2.67;;
72882;SDS011;61017;37.812;-122.286;2023-09-19T00:29:10;6.30;;;2.63;;
72882;SDS011;61017;37.812;-122.286;2023-09-19T00:30:45;4.15;;;2.50;;
72882;SDS011;61017;37.812;-122.286;2023-09-19T00:32:17;3.53;;;2.60;;
72882;SDS011;61017;37.812;-122.286;2023-09-19T00:33:48;6.22;;;2.60;;
72882;SDS011;61017;37.812;-122.286;2023-09-19T00:35:20;3.17;;;2.22;;
72882;SDS011;61017;37.812;-122.286;2023-09-19T00:36:52;4.95;;;2.70;;
72882;SDS011;61017;37.812;-122.286;2023-09-19T00:38:24;5.40;;;2.67;;
72882;SDS011;61017;37.812;-122.286;2023-09-19T00:39:55;7.32;;;2.60;;
72882;SDS011;61017;37.812;-122.286;2023-09-19T00:41:27;7.45;;;2.53;;
72882;SDS011;61017;37.812;-122.286;2023-09-19T00:42:59;11.00;;;2.88;;
72882;SDS011;61017;37.812;-122.286;2023-09-19T00:44:30;8.15;;;2.80;;
72882;SDS011;61017;37.812;-122.286;2023-09-19T00:46:02;7.35;;;2.58;;
72882;SDS011;61017;37.812;-122.286;2023-09-19T00:47:33;12.68;;;2.90;;
72882;SDS011;61017;37.812;-122.286;2023-09-19T00:49:07;9.52;;;3.03;;
72882;SDS011;61017;37.812;-122.286;2023-09-19T00:50:39;7.95;;;3.17;;
72882;SDS011;61017;37.812;-122.286;2023-09-19T00:52:13;5.95;;;2.60;;
72882;SDS011;61017;37.812;-122.286;2023-09-19T00:53:44;4.88;;;2.60;;
72882;SDS011;61017;37.812;-122.286;2023-09-19T00:55:17;4.75;;;2.53;;
72882;SDS011;61017;37.812;-122.286;2023-09-19T00:56:49;5.80;;;2.40;;
72882;SDS011;61017;37.812;-122.286;2023-09-19T00:58:21;8.10;;;2.50;;
72882;SDS011;61017;37.812;-122.286;2023-09-19T00:59:52;5.85;;;2.55;;
72882;SDS011;61017;37.812;-122.286;2023-09-19T01:01:26;5.47;;;2.40;;
72882;SDS011;61017;37.812;-122.286;2023-09-19T01:02:58;4.85;;;2.85;;
72882;SDS011;61017;37.812;-122.286;2023-09-19T01:04:30;5.32;;;2.90;;
72882;SDS011;61017;37.812;-122.286;2023-09-19T01:06:02;5.85;;;2.60;;
72882;SDS011;61017;37.812;-122.286;2023-09-19T01:07:33;4.68;;;2.60;;
72882;SDS011;61017;37.812;-122.286;2023-09-19T01:09:05;5.23;;;2.90;;
72882;SDS011;61017;37.812;-122.286;2023-09-19T01:10:38;3.20;;;2.57;;
72882;SDS011;61017;37.812;-122.286;2023-09-19T01:12:41;4.95;;;2.78;;
72882;SDS011;61017;37.812;-122.286;2023-09-19T01:16:20;4.70;;;2.78;;
72882;SDS011;61017;37.812;-122.286;2023-09-19T01:18:11;4.65;;;2.90;;
72882;SDS011;61017;37.812;-122.286;2023-09-19T01:20:12;3.92;;;2.40;;
72882;SDS011;61017;37.812;-122.286;2023-09-19T01:23:45;4.43;;;2.60;;
72882;SDS011;61017;37.812;-122.286;2023-09-19T01:25:50;3.72;;;2.63;;
72882;SDS011;61017;37.812;-122.286;2023-09-19T01:27:48;3.70;;;2.65;;
72882;SDS011;61017;37.812;-122.286;2023-09-19T01:29:42;3.63;;;2.80;;
72882;SDS011;61017;37.812;-122.286;2023-09-19T01:31:16;3.85;;;2.70;;
72882;SDS011;61017;37.812;-122.286;2023-09-19T01:34:23;3.80;;;2.58;;
72882;SDS011;61017;37.812;-122.286;2023-09-19T01:35:54;3.42;;;2.42;;
72882;SDS011;61017;37.812;-122.286;2023-09-19T01:37:26;7.35;;;2.30;;
72882;SDS011;61017;37.812;-122.286;2023-09-19T01:38:57;3.58;;;2.42;;
72882;SDS011;61017;37.812;-122.286;2023-09-19T01:40:30;3.35;;;2.40;;
72882;SDS011;61017;37.812;-122.286;2023-09-19T01:42:05;3.83;;;2.58;;
72882;SDS011;61017;37.812;-122.286;2023-09-19T01:43:48;5.35;;;2.75;;
72882;SDS011;61017;37.812;-122.286;2023-09-19T01:46:59;3.45;;;2.67;;
72882;SDS011;61017;37.812;-122.286;2023-09-19T01:48:41;5.50;;;2.85;;
72882;SDS011;61017;37.812;-122.286;2023-09-19T01:50:17;4.60;;;2.63;;
72882;SDS011;61017;37.812;-122.286;2023-09-19T01:52:10;4.88;;;2.72;;
72882;SDS011;61017;37.812;-122.286;2023-09-19T01:53:45;3.95;;;2.63;;
72882;SDS011;61017;37.812;-122.286;2023-09-19T01:55:24;5.80;;;2.30;;
72882;SDS011;61017;37.812;-122.286;2023-09-19T01:58:45;4.25;;;2.83;;
72882;SDS011;61017;37.812;-122.286;2023-09-19T02:00:24;3.20;;;2.60;;
72882;SDS011;61017;37.812;-122.286;2023-09-19T02:01:59;4.10;;;2.83;;
72882;SDS011;61017;37.812;-122.286;2023-09-19T02:03:31;4.95;;;2.50;;
72882;SDS011;61017;37.812;-122.286;2023-09-19T02:05:05;4.18;;;2.80;;
72882;SDS011;61017;37.812;-122.286;2023-09-19T02:06:40;3.45;;;2.75;;
72882;SDS011;61017;37.812;-122.286;2023-09-19T02:08:15;4.18;;;3.20;;
72882;SDS011;61017;37.812;-122.286;2023-09-19T02:09:47;3.70;;;3.00;;
72882;SDS011;61017;37.812;-122.286;2023-09-19T02:11:19;3.78;;;3.00;;
72882;SDS011;61017;37.812;-122.286;2023-09-19T02:12:51;4.80;;;3.17;;
72882;SDS011;61017;37.812;-122.286;2023-09-19T02:14:23;4.57;;;3.10;;
72882;SDS011;61017;37.812;-122.286;2023-09-19T02:15:54;4.03;;;2.90;;
72882;SDS011;61017;37.812;-122.286;2023-09-19T02:17:26;4.22;;;3.08;;
72882;SDS011;61017;37.812;-122.286;2023-09-19T02:18:58;4.43;;;3.00;;
72882;SDS011;61017;37.812;-122.286;2023-09-19T02:20:29;3.80;;;3.00;;
72882;SDS011;61017;37.812;-122.286;2023-09-19T02:22:02;4.43;;;3.10;;
72882;SDS011;61017;37.812;-122.286;2023-09-19T02:23:34;4.70;;;3.10;;
72882;SDS011;61017;37.812;-122.286;2023-09-19T02:25:05;4.05;;;3.30;;
72882;SDS011;61017;37.812;-122.286;2023-09-19T02:26:37;3.78;;;2.95;;
72882;SDS011;61017;37.812;-122.286;2023-09-19T02:28:09;5.00;;;3.15;;
72882;SDS011;61017;37.812;-122.286;2023-09-19T02:29:40;3.75;;;3.15;;
72882;SDS011;61017;37.812;-122.286;2023-09-19T02:31:12;4.20;;;2.72;;
72882;SDS011;61017;37.812;-122.286;2023-09-19T02:32:44;4.30;;;3.22;;
72882;SDS011;61017;37.812;-122.286;2023-09-19T02:34:15;3.63;;;2.80;;
72882;SDS011;61017;37.812;-122.286;2023-09-19T02:35:47;4.75;;;2.83;;
72882;SDS011;61017;37.812;-122.286;2023-09-19T02:37:18;4.97;;;2.90;;
72882;SDS011;61017;37.812;-122.286;2023-09-19T02:38:50;4.22;;;3.22;;
72882;SDS011;61017;37.812;-122.286;2023-09-19T02:40:23;5.05;;;2.92;;
72882;SDS011;61017;37.812;-122.286;2023-09-19T02:41:55;4.10;;;2.95;;
72882;SDS011;61017;37.812;-122.286;2023-09-19T02:43:26;4.78;;;3.33;;
72882;SDS011;61017;37.812;-122.286;2023-09-19T02:44:58;4.43;;;3.33;;
72882;SDS011;61017;37.812;-122.286;2023-09-19T02:46:30;3.30;;;2.92;;
72882;SDS011;61017;37.812;-122.286;2023-09-19T02:48:01;4.38;;;3.30;;
72882;SDS011;61017;37.812;-122.286;2023-09-19T02:49:33;4.78;;;3.30;;
72882;SDS011;61017;37.812;-122.286;2023-09-19T02:51:04;4.63;;;3.75;;
72882;SDS011;61017;37.812;-122.286;2023-09-19T02:52:36;5.72;;;3.40;;
72882;SDS011;61017;37.812;-122.286;2023-09-19T02:54:08;5.45;;;3.47;;
72882;SDS011;61017;37.812;-122.286;2023-09-19T02:55:39;5.55;;;3.80;;
72882;SDS011;61017;37.812;-122.286;2023-09-19T02:57:11;4.28;;;3.47;;
72882;SDS011;61017;37.812;-122.286;2023-09-19T02:58:42;5.50;;;3.72;;
72882;SDS011;61017;37.812;-122.286;2023-09-19T03:00:16;5.47;;;3.83;;
72882;SDS011;61017;37.812;-122.286;2023-09-19T03:01:48;6.03;;;3.53;;
72882;SDS011;61017;37.812;-122.286;2023-09-19T03:03:20;4.60;;;3.63;;
72882;SDS011;61017;37.812;-122.286;2023-09-19T03:04:51;4.93;;;3.42;;
72882;SDS011;61017;37.812;-122.286;2023-09-19T03:06:23;5.85;;;3.85;;
72882;SDS011;61017;37.812;-122.286;2023-09-19T03:07:54;5.03;;;4.00;;
72882;SDS011;61017;37.812;-122.286;2023-09-19T03:09:26;5.32;;;3.92;;
72882;SDS011;61017;37.812;-122.286;2023-09-19T03:10:57;4.75;;;3.75;;
72882;SDS011;61017;37.812;-122.286;2023-09-19T03:12:29;5.50;;;3.97;;
72882;SDS011;61017;37.812;-122.286;2023-09-19T03:14:00;6.03;;;3.65;;
72882;SDS011;61017;37.812;-122.286;2023-09-19T03:15:32;7.57;;;4.18;;
72882;SDS011;61017;37.812;-122.286;2023-09-19T03:17:04;10.65;;;4.30;;
72882;SDS011;61017;37.812;-122.286;2023-09-19T03:18:36;15.02;;;4.47;;
72882;SDS011;61017;37.812;-122.286;2023-09-19T03:20:08;9.90;;;3.83;;
72882;SDS011;61017;37.812;-122.286;2023-09-19T03:21:39;7.57;;;4.00;;
72882;SDS011;61017;37.812;-122.286;2023-09-19T03:23:11;12.18;;;3.88;;
72882;SDS011;61017;37.812;-122.286;2023-09-19T03:24:42;7.72;;;4.05;;
72882;SDS011;61017;37.812;-122.286;2023-09-19T03:26:14;13.02;;;4.55;;
72882;SDS011;61017;37.812;-122.286;2023-09-19T03:27:46;5.20;;;4.20;;
72882;SDS011;61017;37.812;-122.286;2023-09-19T03:29:17;7.28;;;4.50;;
72882;SDS011;61017;37.812;-122.286;2023-09-19T03:31:02;9.70;;;4.45;;
72882;SDS011;61017;37.812;-122.286;2023-09-19T03:32:35;7.78;;;4.32;;
72882;SDS011;61017;37.812;-122.286;2023-09-19T03:34:06;9.50;;;4.80;;
72882;SDS011;61017;37.812;-122.286;2023-09-19T03:35:39;8.90;;;4.78;;
72882;SDS011;61017;37.812;-122.286;2023-09-19T03:37:11;11.30;;;5.00;;
72882;SDS011;61017;37.812;-122.286;2023-09-19T03:38:42;9.13;;;4.60;;
72882;SDS011;61017;37.812;-122.286;2023-09-19T03:40:14;8.57;;;4.75;;
72882;SDS011;61017;37.812;-122.286;2023-09-19T03:41:45;11.10;;;5.20;;
72882;SDS011;61017;37.812;-122.286;2023-09-19T03:43:17;10.68;;;4.97;;
72882;SDS011;61017;37.812;-122.286;2023-09-19T03:44:49;10.63;;;4.90;;
72882;SDS011;61017;37.812;-122.286;2023-09-19T03:46:20;9.70;;;4.60;;
72882;SDS011;61017;37.812;-122.286;2023-09-19T03:47:51;10.60;;;5.22;;
72882;SDS011;61017;37.812;-122.286;2023-09-19T03:49:23;12.57;;;4.63;;
72882;SDS011;61017;37.812;-122.286;2023-09-19T03:50:55;9.77;;;4.68;;
72882;SDS011;61017;37.812;-122.286;2023-09-19T03:52:26;9.68;;;5.10;;
72882;SDS011;61017;37.812;-122.286;2023-09-19T03:53:58;7.53;;;4.65;;
72882;SDS011;61017;37.812;-122.286;2023-09-19T03:55:29;7.60;;;4.53;;
72882;SDS011;61017;37.812;-122.286;2023-09-19T03:57:01;11.40;;;5.00;;
72882;SDS011;61017;37.812;-122.286;2023-09-19T03:58:32;7.45;;;5.13;;
72882;SDS011;61017;37.812;-122.286;2023-09-19T04:00:04;9.73;;;4.95;;
72882;SDS011;61017;37.812;-122.286;2023-09-19T04:01:36;7.85;;;5.35;;
72882;SDS011;61017;37.812;-122.286;2023-09-19T04:03:08;9.75;;;4.88;;
72882;SDS011;61017;37.812;-122.286;2023-09-19T04:04:40;8.32;;;5.30;;
72882;SDS011;61017;37.812;-122.286;2023-09-19T04:06:12;7.78;;;5.03;;
72882;SDS011;61017;37.812;-122.286;2023-09-19T04:07:46;9.95;;;5.25;;
72882;SDS011;61017;37.812;-122.286;2023-09-19T04:09:18;9.15;;;5.40;;
72882;SDS011;61017;37.812;-122.286;2023-09-19T04:10:49;6.55;;;5.13;;
72882;SDS011;61017;37.812;-122.286;2023-09-19T04:12:21;8.43;;;5.50;;
72882;SDS011;61017;37.812;-122.286;2023-09-19T04:13:52;10.52;;;5.40;;
72882;SDS011;61017;37.812;-122.286;2023-09-19T04:15:24;8.63;;;5.32;;
72882;SDS011;61017;37.812;-122.286;2023-09-19T04:16:55;6.82;;;5.38;;
72882;SDS011;61017;37.812;-122.286;2023-09-19T04:18:27;8.35;;;5.43;;
72882;SDS011;61017;37.812;-122.286;2023-09-19T04:19:59;7.22;;;5.38;;
72882;SDS011;61017;37.812;-122.286;2023-09-19T04:21:30;9.25;;;5.35;;
72882;SDS011;61017;37.812;-122.286;2023-09-19T04:23:02;6.65;;;5.10;;
72882;SDS011;61017;37.812;-122.286;2023-09-19T04:24:34;6.47;;;5.30;;
72882;SDS011;61017;37.812;-122.286;2023-09-19T04:26:05;8.73;;;5.38;;
72882;SDS011;61017;37.812;-122.286;2023-09-19T04:27:37;8.10;;;5.35;;
72882;SDS011;61017;37.812;-122.286;2023-09-19T04:29:09;6.78;;;5.20;;
72882;SDS011;61017;37.812;-122.286;2023-09-19T04:30:40;7.30;;;5.10;;
72882;SDS011;61017;37.812;-122.286;2023-09-19T04:32:12;6.60;;;5.15;;
72882;SDS011;61017;37.812;-122.286;2023-09-19T04:33:43;8.85;;;5.00;;
72882;SDS011;61017;37.812;-122.286;2023-09-19T04:35:15;7.88;;;5.50;;
72882;SDS011;61017;37.812;-122.286;2023-09-19T04:36:47;8.50;;;5.30;;
72882;SDS011;61017;37.812;-122.286;2023-09-19T04:38:18;8.88;;;5.68;;
72882;SDS011;61017;37.812;-122.286;2023-09-19T04:39:50;7.25;;;5.43;;
72882;SDS011;61017;37.812;-122.286;2023-09-19T04:41:22;7.63;;;5.70;;
72882;SDS011;61017;37.812;-122.286;2023-09-19T04:42:54;9.70;;;5.28;;
72882;SDS011;61017;37.812;-122.286;2023-09-19T04:44:26;7.95;;;5.65;;
72882;SDS011;61017;37.812;-122.286;2023-09-19T04:45:58;7.35;;;5.38;;
72882;SDS011;61017;37.812;-122.286;2023-09-19T04:47:29;9.25;;;5.60;;
72882;SDS011;61017;37.812;-122.286;2023-09-19T04:49:01;7.65;;;6.00;;
72882;SDS011;61017;37.812;-122.286;2023-09-19T04:50:32;7.60;;;5.72;;
72882;SDS011;61017;37.812;-122.286;2023-09-19T04:52:04;6.93;;;5.32;;
72882;SDS011;61017;37.812;-122.286;2023-09-19T04:53:36;8.23;;;5.50;;
72882;SDS011;61017;37.812;-122.286;2023-09-19T04:55:16;7.75;;;5.57;;
72882;SDS011;61017;37.812;-122.286;2023-09-19T04:56:48;8.63;;;5.90;;
72882;SDS011;61017;37.812;-122.286;2023-09-19T04:58:20;6.72;;;5.30;;
72882;SDS011;61017;37.812;-122.286;2023-09-19T04:59:52;6.75;;;5.40;;
72882;SDS011;61017;37.812;-122.286;2023-09-19T05:01:24;6.85;;;5.22;;
72882;SDS011;61017;37.812;-122.286;2023-09-19T05:02:56;8.48;;;5.22;;
72882;SDS011;61017;37.812;-122.286;2023-09-19T05:04:28;6.43;;;5.22;;
72882;SDS011;61017;37.812;-122.286;2023-09-19T05:05:59;7.40;;;5.47;;
72882;SDS011;61017;37.812;-122.286;2023-09-19T05:07:31;7.22;;;5.07;;
72882;SDS011;61017;37.812;-122.286;2023-09-19T05:09:02;7.70;;;5.70;;
72882;SDS011;61017;37.812;-122.286;2023-09-19T05:10:35;8.02;;;5.32;;
72882;SDS011;61017;37.812;-122.286;2023-09-19T05:12:06;9.20;;;5.38;;
72882;SDS011;61017;37.812;-122.286;2023-09-19T05:13:38;7.35;;;5.40;;
72882;SDS011;61017;37.812;-122.286;2023-09-19T05:15:09;7.18;;;5.25;;
72882;SDS011;61017;37.812;-122.286;2023-09-19T05:16:41;7.97;;;5.50;;
72882;SDS011;61017;37.812;-122.286;2023-09-19T05:18:13;6.68;;;5.45;;
72882;SDS011;61017;37.812;-122.286;2023-09-19T05:19:44;7.13;;;5.40;;
72882;SDS011;61017;37.812;-122.286;2023-09-19T05:21:16;6.70;;;5.22;;
72882;SDS011;61017;37.812;-122.286;2023-09-19T05:22:47;8.43;;;5.38;;
72882;SDS011;61017;37.812;-122.286;2023-09-19T05:24:19;7.35;;;5.47;;
72882;SDS011;61017;37.812;-122.286;2023-09-19T05:25:50;6.20;;;5.30;;
72882;SDS011;61017;37.812;-122.286;2023-09-19T05:27:22;6.20;;;5.10;;
72882;SDS011;61017;37.812;-122.286;2023-09-19T05:28:54;6.63;;;5.25;;
72882;SDS011;61017;37.812;-122.286;2023-09-19T05:30:25;6.28;;;5.30;;
72882;SDS011;61017;37.812;-122.286;2023-09-19T05:31:57;6.95;;;5.20;;
72882;SDS011;61017;37.812;-122.286;2023-09-19T05:33:29;7.82;;;5.45;;
72882;SDS011;61017;37.812;-122.286;2023-09-19T05:35:00;6.75;;;5.30;;
72882;SDS011;61017;37.812;-122.286;2023-09-19T05:36:32;6.28;;;5.13;;
72882;SDS011;61017;37.812;-122.286;2023-09-19T05:38:03;7.05;;;5.07;;
72882;SDS011;61017;37.812;-122.286;2023-09-19T05:39:35;7.88;;;5.30;;
72882;SDS011;61017;37.812;-122.286;2023-09-19T05:41:06;6.43;;;5.07;;
72882;SDS011;61017;37.812;-122.286;2023-09-19T05:42:38;6.13;;;5.00;;
72882;SDS011;61017;37.812;-122.286;2023-09-19T05:44:10;6.75;;;5.13;;
72882;SDS011;61017;37.812;-122.286;2023-09-19T05:45:41;6.50;;;5.18;;
72882;SDS011;61017;37.812;-122.286;2023-09-19T05:47:13;6.45;;;5.20;;
72882;SDS011;61017;37.812;-122.286;2023-09-19T05:48:44;6.10;;;5.28;;
72882;SDS011;61017;37.812;-122.286;2023-09-19T05:50:16;7.40;;;5.18;;
72882;SDS011;61017;37.812;-122.286;2023-09-19T05:51:48;7.78;;;5.05;;
72882;SDS011;61017;37.812;-122.286;2023-09-19T05:53:19;6.47;;;5.40;;
72882;SDS011;61017;37.812;-122.286;2023-09-19T05:54:51;6.60;;;5.22;;
72882;SDS011;61017;37.812;-122.286;2023-09-19T05:56:23;7.10;;;5.47;;
72882;SDS011;61017;37.812;-122.286;2023-09-19T05:57:54;7.28;;;5.47;;
72882;SDS011;61017;37.812;-122.286;2023-09-19T05:59:26;6.22;;;5.03;;
72882;SDS011;61017;37.812;-122.286;2023-09-19T06:00:58;6.63;;;5.18;;
72882;SDS011;61017;37.812;-122.286;2023-09-19T06:02:29;6.55;;;5.00;;
72882;SDS011;61017;37.812;-122.286;2023-09-19T06:04:01;6.47;;;4.80;;
72882;SDS011;61017;37.812;-122.286;2023-09-19T06:05:32;5.93;;;5.25;;
72882;SDS011;61017;37.812;-122.286;2023-09-19T06:07:04;6.07;;;4.78;;
72882;SDS011;61017;37.812;-122.286;2023-09-19T06:08:36;6.10;;;5.20;;
72882;SDS011;61017;37.812;-122.286;2023-09-19T06:10:07;6.55;;;5.22;;
72882;SDS011;61017;37.812;-122.286;2023-09-19T06:11:41;6.35;;;4.88;;
72882;SDS011;61017;37.812;-122.286;2023-09-19T06:13:13;6.60;;;5.40;;
72882;SDS011;61017;37.812;-122.286;2023-09-19T06:14:46;5.70;;;4.80;;
72882;SDS011;61017;37.812;-122.286;2023-09-19T06:16:17;5.85;;;5.07;;
72882;SDS011;61017;37.812;-122.286;2023-09-19T06:17:49;5.50;;;4.90;;
72882;SDS011;61017;37.812;-122.286;2023-09-19T06:19:22;6.88;;;5.47;;
72882;SDS011;61017;37.812;-122.286;2023-09-19T06:20:54;6.82;;;5.07;;
72882;SDS011;61017;37.812;-122.286;2023-09-19T06:22:25;6.35;;;4.65;;
72882;SDS011;61017;37.812;-122.286;2023-09-19T06:23:57;5.72;;;4.82;;
72882;SDS011;61017;37.812;-122.286;2023-09-19T06:25:29;6.00;;;4.95;;
72882;SDS011;61017;37.812;-122.286;2023-09-19T06:27:00;5.70;;;4.80;;
72882;SDS011;61017;37.812;-122.286;2023-09-19T06:28:32;6.68;;;5.07;;
72882;SDS011;61017;37.812;-122.286;2023-09-19T06:30:04;6.30;;;4.90;;
72882;SDS011;61017;37.812;-122.286;2023-09-19T06:31:38;6.60;;;5.15;;
72882;SDS011;61017;37.812;-122.286;2023-09-19T06:33:10;7.28;;;4.97;;
72882;SDS011;61017;37.812;-122.286;2023-09-19T06:34:41;6.43;;;5.43;;
72882;SDS011;61017;37.812;-122.286;2023-09-19T06:36:13;6.50;;;4.75;;
72882;SDS011;61017;37.812;-122.286;2023-09-19T06:37:45;5.53;;;4.78;;
72882;SDS011;61017;37.812;-122.286;2023-09-19T06:39:16;6.60;;;4.68;;
72882;SDS011;61017;37.812;-122.286;2023-09-19T06:40:48;5.80;;;4.68;;
72882;SDS011;61017;37.812;-122.286;2023-09-19T06:42:20;5.90;;;4.53;;
72882;SDS011;61017;37.812;-122.286;2023-09-19T06:43:53;6.80;;;5.55;;
72882;SDS011;61017;37.812;-122.286;2023-09-19T06:45:25;6.10;;;5.28;;
72882;SDS011;61017;37.812;-122.286;2023-09-19T06:46:56;5.88;;;4.82;;
72882;SDS011;61017;37.812;-122.286;2023-09-19T06:48:28;6.78;;;5.10;;
72882;SDS011;61017;37.812;-122.286;2023-09-19T06:50:00;5.95;;;5.03;;
72882;SDS011;61017;37.812;-122.286;2023-09-19T06:51:32;7.53;;;5.10;;
72882;SDS011;61017;37.812;-122.286;2023-09-19T06:53:04;6.68;;;5.07;;
72882;SDS011;61017;37.812;-122.286;2023-09-19T06:54:35;6.75;;;5.00;;
72882;SDS011;61017;37.812;-122.286;2023-09-19T06:56:07;5.68;;;5.00;;
72882;SDS011;61017;37.812;-122.286;2023-09-19T06:57:38;7.22;;;4.85;;
72882;SDS011;61017;37.812;-122.286;2023-09-19T06:59:10;5.67;;;4.60;;
72882;SDS011;61017;37.812;-122.286;2023-09-19T07:00:42;5.97;;;4.97;;
72882;SDS011;61017;37.812;-122.286;2023-09-19T07:02:13;6.50;;;5.28;;
72882;SDS011;61017;37.812;-122.286;2023-09-19T07:03:45;6.20;;;4.80;;
72882;SDS011;61017;37.812;-122.286;2023-09-19T07:05:17;5.65;;;4.93;;
72882;SDS011;61017;37.812;-122.286;2023-09-19T07:06:51;6.55;;;5.00;;
72882;SDS011;61017;37.812;-122.286;2023-09-19T07:08:23;6.63;;;4.90;;
72882;SDS011;61017;37.812;-122.286;2023-09-19T07:09:54;5.72;;;4.72;;
72882;SDS011;61017;37.812;-122.286;2023-09-19T07:11:26;5.85;;;4.90;;
72882;SDS011;61017;37.812;-122.286;2023-09-19T07:13:00;5.75;;;4.88;;
72882;SDS011;61017;37.812;-122.286;2023-09-19T07:14:33;6.03;;;4.82;;
72882;SDS011;61017;37.812;-122.286;2023-09-19T07:16:05;6.45;;;5.40;;
72882;SDS011;61017;37.812;-122.286;2023-09-19T07:17:36;6.70;;;5.18;;
72882;SDS011;61017;37.812;-122.286;2023-09-19T07:19:08;6.03;;;4.75;;
72882;SDS011;61017;37.812;-122.286;2023-09-19T07:20:39;6.13;;;4.80;;
72882;SDS011;61017;37.812;-122.286;2023-09-19T07:22:11;6.75;;;5.10;;
72882;SDS011;61017;37.812;-122.286;2023-09-19T07:23:43;5.78;;;4.88;;
72882;SDS011;61017;37.812;-122.286;2023-09-19T07:25:14;6.55;;;5.07;;
72882;SDS011;61017;37.812;-122.286;2023-09-19T07:26:46;6.13;;;4.90;;
72882;SDS011;61017;37.812;-122.286;2023-09-19T07:28:17;8.05;;;5.13;;
72882;SDS011;61017;37.812;-122.286;2023-09-19T07:29:51;6.05;;;5.07;;
72882;SDS011;61017;37.812;-122.286;2023-09-19T07:31:23;6.60;;;4.78;;
72882;SDS011;61017;37.812;-122.286;2023-09-19T07:32:54;6.53;;;5.00;;
72882;SDS011;61017;37.812;-122.286;2023-09-19T07:34:26;7.47;;;5.32;;
72882;SDS011;61017;37.812;-122.286;2023-09-19T07:35:58;5.75;;;4.78;;
72882;SDS011;61017;37.812;-122.286;2023-09-19T07:37:29;5.63;;;4.88;;
72882;SDS011;61017;37.812;-122.286;2023-09-19T07:39:01;6.30;;;4.97;;
72882;SDS011;61017;37.812;-122.286;2023-09-19T07:40:33;6.20;;;5.20;;
72882;SDS011;61017;37.812;-122.286;2023-09-19T07:42:04;6.35;;;4.70;;
72882;SDS011;61017;37.812;-122.286;2023-09-19T07:43:36;6.13;;;4.95;;
72882;SDS011;61017;37.812;-122.286;2023-09-19T07:45:08;6.32;;;5.03;;
72882;SDS011;61017;37.812;-122.286;2023-09-19T07:46:40;7.35;;;5.22;;
72882;SDS011;61017;37.812;-122.286;2023-09-19T07:48:11;6.32;;;4.95;;
72882;SDS011;61017;37.812;-122.286;2023-09-19T07:49:43;5.65;;;4.65;;
72882;SDS011;61017;37.812;-122.286;2023-09-19T07:51:18;6.00;;;4.95;;
72882;SDS011;61017;37.812;-122.286;2023-09-19T07:52:49;6.70;;;5.10;;
72882;SDS011;61017;37.812;-122.286;2023-09-19T07:54:21;6.20;;;4.97;;
72882;SDS011;61017;37.812;-122.286;2023-09-19T07:55:52;6.45;;;4.80;;
72882;SDS011;61017;37.812;-122.286;2023-09-19T07:57:31;5.90;;;5.30;;
72882;SDS011;61017;37.812;-122.286;2023-09-19T07:59:03;6.53;;;5.15;;
72882;SDS011;61017;37.812;-122.286;2023-09-19T08:00:34;7.35;;;5.53;;
72882;SDS011;61017;37.812;-122.286;2023-09-19T08:02:06;6.65;;;5.25;;
72882;SDS011;61017;37.812;-122.286;2023-09-19T08:03:38;7.50;;;5.60;;
72882;SDS011;61017;37.812;-122.286;2023-09-19T08:05:10;6.43;;;5.47;;
72882;SDS011;61017;37.812;-122.286;2023-09-19T08:08:13;8.05;;;5.55;;
72882;SDS011;61017;37.812;-122.286;2023-09-19T08:09:45;6.85;;;5.70;;
72882;SDS011;61017;37.812;-122.286;2023-09-19T08:11:17;7.50;;;5.70;;
72882;SDS011;61017;37.812;-122.286;2023-09-19T08:12:49;7.13;;;5.75;;
72882;SDS011;61017;37.812;-122.286;2023-09-19T08:14:20;8.05;;;6.20;;
72882;SDS011;61017;37.812;-122.286;2023-09-19T08:15:52;7.13;;;5.70;;
72882;SDS011;61017;37.812;-122.286;2023-09-19T08:17:24;7.40;;;6.10;;
72882;SDS011;61017;37.812;-122.286;2023-09-19T08:18:55;7.47;;;6.00;;
72882;SDS011;61017;37.812;-122.286;2023-09-19T08:20:27;7.45;;;5.75;;
72882;SDS011;61017;37.812;-122.286;2023-09-19T08:21:59;6.65;;;5.70;;
72882;SDS011;61017;37.812;-122.286;2023-09-19T08:23:31;7.57;;;5.57;;
72882;SDS011;61017;37.812;-122.286;2023-09-19T08:25:03;8.38;;;6.13;;
72882;SDS011;61017;37.812;-122.286;2023-09-19T08:26:35;7.75;;;5.93;;
72882;SDS011;61017;37.812;-122.286;2023-09-19T08:28:07;7.05;;;5.95;;
72882;SDS011;61017;37.812;-122.286;2023-09-19T08:29:38;7.47;;;6.20;;
72882;SDS011;61017;37.812;-122.286;2023-09-19T08:31:10;6.53;;;5.57;;
72882;SDS011;61017;37.812;-122.286;2023-09-19T08:32:42;7.78;;;6.13;;
72882;SDS011;61017;37.812;-122.286;2023-09-19T08:34:13;7.80;;;5.93;;
72882;SDS011;61017;37.812;-122.286;2023-09-19T08:35:45;9.27;;;6.43;;
72882;SDS011;61017;37.812;-122.286;2023-09-19T08:37:16;7.97;;;6.25;;
72882;SDS011;61017;37.812;-122.286;2023-09-19T08:38:48;7.80;;;5.68;;
72882;SDS011;61017;37.812;-122.286;2023-09-19T08:40:19;6.90;;;6.15;;
72882;SDS011;61017;37.812;-122.286;2023-09-19T08:49:42;8.60;;;6.05;;
72882;SDS011;61017;37.812;-122.286;2023-09-19T08:51:41;7.75;;;6.50;;
72882;SDS011;61017;37.812;-122.286;2023-09-19T08:53:15;8.20;;;6.03;;
72882;SDS011;61017;37.812;-122.286;2023-09-19T08:54:58;7.00;;;5.82;;
72882;SDS011;61017;37.812;-122.286;2023-09-19T08:56:32;8.10;;;6.35;;
72882;SDS011;61017;37.812;-122.286;2023-09-19T08:58:04;7.65;;;6.07;;
72882;SDS011;61017;37.812;-122.286;2023-09-19T08:59:41;6.93;;;6.10;;
72882;SDS011;61017;37.812;-122.286;2023-09-19T09:01:16;9.65;;;6.18;;
72882;SDS011;61017;37.812;-122.286;2023-09-19T09:02:49;7.13;;;5.97;;
72882;SDS011;61017;37.812;-122.286;2023-09-19T09:04:22;7.90;;;6.60;;
72882;SDS011;61017;37.812;-122.286;2023-09-19T09:05:54;8.32;;;6.50;;
72882;SDS011;61017;37.812;-122.286;2023-09-19T09:07:25;7.45;;;6.30;;
72882;SDS011;61017;37.812;-122.286;2023-09-19T09:08:57;7.95;;;6.32;;
72882;SDS011;61017;37.812;-122.286;2023-09-19T09:10:29;8.02;;;6.65;;
72882;SDS011;61017;37.812;-122.286;2023-09-19T09:12:01;7.22;;;6.00;;